Česky Dansk Deutsch English Español Suomi Français Magyar Italiano Nederlands norsk Polski Português svenska Türkçe

 

Het Weer

Langebaanweg (Zuid Afrika)

14:00, 21 augustus 2016 (GMT)

NWNNE
WE
SWSSE
Home            
Langebaanweg Cape Town, Cape Town International Airport Vredendal Calvinia Overberg Fraserburg Springbok Oudtshoorn Mossel Bay Cape Saint Blaize George, George Airport Beaufort West Plettenberg Bay Alexander Bay Upington, Up-Apt Graaff Reinet De Aar De Aar Middelburg Port Elizabeth, Port E Apt Keetmanshoop Sishen Luderitz / Diaz Point Kimberley, Kim-Apt

Om een weerknop op uw website of weblog te plaatsen, copieer onderstaande code en plak die in uw pagina. In het eerste vakje staat HTML-code, in het tweede vakje UBB-code.


Add to Google

Details

Wind speed:3 bf, 7 kn, 3.6 m/s, 8.1 miles/h, 13.0 km/h
Wind direction:WSW, 250°
Het Weer:moderate
moderate
moderate
Temperature:13°C, 55°F
Dew-point:11°C, 52°F
Atmospheric pressure:1018 hPa, 763.6 mmHg, 30.06 inHg, 1.005 atm
Relative humidity:87.6 %
METAR:FALW 211400Z AUTO 25007KT 13/11 Q1018

Snelkoppelingen

Actuele weersinformatie van de hele wereld. Voeg locaties toe met het plus (+) symbool. Deze snelkoppelingen kunnen worden toegevoegd aan Google.

Lid van de Technetium groep

website free tracking
StatCounter NetStat W3C Validator

26-04-2018 09:47:32
astro.technetium.be money.technetium.be phote.technetium.be tafeltennistafel.technetium.be www.ligfiets.net